バンコク/スワンナプーム の空港の天気 - METARとTAF

スワンナプーム国際空港 ( VTBS / BKK ) - タイ サムットプラーカーン県 (バンコク近郊)
飛行場実況気象(Metar)
観測時間11/30 18:00 ICT (11/30 11:00 UTC)
風向・風速北東 5m/s
視程10km以上
天気現象
少しの雲 雲底高度 1370m
気温29℃
湿度58%
気圧1011hPa
METARVTBS 301100Z 04009KT 9999 FEW045 29/20 Q1011 NOSIG
過去の天気等 Google飛行場航空写真 Wunderground天気予報

過去48時間のMETAR

飛行場予報(TAF)
発表時間: 11/30 12:00 ICT (11/30 05:00 UTC)
予報対象時間: 30日13時 ICT ~ 1日19時 ICT
風向・風速東北東 5m/s
視程10km以上
少しの雲 雲底高度 760m
全天の4割程度の雲 雲底高度 2440m
30日17時 ICT ~ 30日19時 ICT に徐々に
風向・風速北 4m/s
1日1時 ICT ~ 1日3時 ICT に徐々に
風向・風速東北東 5m/s
TAF VTBS 300500Z 3006/0112 07010KT 9999 FEW025 SCT080
BECMG 3010/3012 01008KT
BECMG 3018/3020 07010KT